sensor_id;sensor_type;location;lat;lon;timestamp;temperature;humidity
10572;DHT22;5334;48.928;12.704;2024-03-29T00:00:55;5.40;99.90
10572;DHT22;5334;48.928;12.704;2024-03-29T00:03:21;5.40;99.90
10572;DHT22;5334;48.928;12.704;2024-03-29T00:05:47;5.40;99.90
10572;DHT22;5334;48.928;12.704;2024-03-29T00:08:13;5.40;99.90
10572;DHT22;5334;48.928;12.704;2024-03-29T00:10:38;5.40;99.90
10572;DHT22;5334;48.928;12.704;2024-03-29T00:13:04;5.40;99.90
10572;DHT22;5334;48.928;12.704;2024-03-29T00:15:33;5.40;99.90
10572;DHT22;5334;48.928;12.704;2024-03-29T00:17:59;5.40;99.90
10572;DHT22;5334;48.928;12.704;2024-03-29T00:20:24;5.40;99.90
10572;DHT22;5334;48.928;12.704;2024-03-29T00:22:50;5.40;99.90
10572;DHT22;5334;48.928;12.704;2024-03-29T00:25:16;5.40;99.90
10572;DHT22;5334;48.928;12.704;2024-03-29T00:27:42;5.40;99.90
10572;DHT22;5334;48.928;12.704;2024-03-29T00:30:09;5.40;99.90
10572;DHT22;5334;48.928;12.704;2024-03-29T00:32:35;5.40;99.90
10572;DHT22;5334;48.928;12.704;2024-03-29T00:35:01;5.40;99.90
10572;DHT22;5334;48.928;12.704;2024-03-29T00:37:27;5.40;99.90
10572;DHT22;5334;48.928;12.704;2024-03-29T00:39:53;5.40;99.90
10572;DHT22;5334;48.928;12.704;2024-03-29T00:42:19;5.40;99.90
10572;DHT22;5334;48.928;12.704;2024-03-29T00:44:46;5.40;99.90
10572;DHT22;5334;48.928;12.704;2024-03-29T00:47:12;5.40;99.90
10572;DHT22;5334;48.928;12.704;2024-03-29T00:49:38;5.40;99.90
10572;DHT22;5334;48.928;12.704;2024-03-29T00:52:04;5.40;99.90
10572;DHT22;5334;48.928;12.704;2024-03-29T00:54:31;5.40;99.90
10572;DHT22;5334;48.928;12.704;2024-03-29T00:56:56;5.40;99.90
10572;DHT22;5334;48.928;12.704;2024-03-29T00:59:22;5.40;99.90
10572;DHT22;5334;48.928;12.704;2024-03-29T01:01:49;5.40;99.90
10572;DHT22;5334;48.928;12.704;2024-03-29T01:04:14;5.40;99.90
10572;DHT22;5334;48.928;12.704;2024-03-29T01:06:40;5.40;99.90
10572;DHT22;5334;48.928;12.704;2024-03-29T01:09:06;5.40;99.90
10572;DHT22;5334;48.928;12.704;2024-03-29T01:11:32;5.40;99.90
10572;DHT22;5334;48.928;12.704;2024-03-29T01:13:58;5.40;99.90
10572;DHT22;5334;48.928;12.704;2024-03-29T01:16:24;5.40;99.90
10572;DHT22;5334;48.928;12.704;2024-03-29T01:18:50;5.40;99.90
10572;DHT22;5334;48.928;12.704;2024-03-29T01:21:17;5.30;99.90
10572;DHT22;5334;48.928;12.704;2024-03-29T01:23:43;5.30;99.90
10572;DHT22;5334;48.928;12.704;2024-03-29T01:26:09;5.30;99.90
10572;DHT22;5334;48.928;12.704;2024-03-29T01:28:37;5.30;99.90
10572;DHT22;5334;48.928;12.704;2024-03-29T01:31:03;5.20;99.90
10572;DHT22;5334;48.928;12.704;2024-03-29T01:33:30;5.30;99.90
10572;DHT22;5334;48.928;12.704;2024-03-29T01:35:58;5.30;99.90
10572;DHT22;5334;48.928;12.704;2024-03-29T01:38:24;5.30;99.90
10572;DHT22;5334;48.928;12.704;2024-03-29T01:40:49;5.20;99.90
10572;DHT22;5334;48.928;12.704;2024-03-29T01:43:15;5.20;99.90
10572;DHT22;5334;48.928;12.704;2024-03-29T01:45:45;5.20;99.90
10572;DHT22;5334;48.928;12.704;2024-03-29T01:48:13;5.20;99.90
10572;DHT22;5334;48.928;12.704;2024-03-29T01:50:40;5.10;99.90
10572;DHT22;5334;48.928;12.704;2024-03-29T01:53:08;5.10;99.90
10572;DHT22;5334;48.928;12.704;2024-03-29T01:55:37;5.10;99.90
10572;DHT22;5334;48.928;12.704;2024-03-29T01:58:04;5.10;99.90
10572;DHT22;5334;48.928;12.704;2024-03-29T02:00:30;5.20;99.90
10572;DHT22;5334;48.928;12.704;2024-03-29T02:02:57;5.20;99.90
10572;DHT22;5334;48.928;12.704;2024-03-29T02:05:24;5.20;99.90
10572;DHT22;5334;48.928;12.704;2024-03-29T02:07:50;5.20;99.90
10572;DHT22;5334;48.928;12.704;2024-03-29T02:10:16;5.20;99.90
10572;DHT22;5334;48.928;12.704;2024-03-29T02:12:42;5.20;99.90
10572;DHT22;5334;48.928;12.704;2024-03-29T02:15:08;5.20;99.90
10572;DHT22;5334;48.928;12.704;2024-03-29T02:17:33;5.20;99.90
10572;DHT22;5334;48.928;12.704;2024-03-29T02:19:59;5.20;99.90
10572;DHT22;5334;48.928;12.704;2024-03-29T02:22:25;5.20;99.90
10572;DHT22;5334;48.928;12.704;2024-03-29T02:24:54;5.20;99.90
10572;DHT22;5334;48.928;12.704;2024-03-29T02:27:21;5.20;99.90
10572;DHT22;5334;48.928;12.704;2024-03-29T02:29:46;5.20;99.90
10572;DHT22;5334;48.928;12.704;2024-03-29T02:32:12;5.20;99.90
10572;DHT22;5334;48.928;12.704;2024-03-29T02:34:38;5.20;99.90
10572;DHT22;5334;48.928;12.704;2024-03-29T02:37:04;5.20;99.90
10572;DHT22;5334;48.928;12.704;2024-03-29T02:39:30;5.30;99.90
10572;DHT22;5334;48.928;12.704;2024-03-29T02:41:56;5.30;99.90
10572;DHT22;5334;48.928;12.704;2024-03-29T02:44:21;5.30;99.90
10572;DHT22;5334;48.928;12.704;2024-03-29T02:46:47;5.30;99.90
10572;DHT22;5334;48.928;12.704;2024-03-29T02:49:12;5.30;99.90
10572;DHT22;5334;48.928;12.704;2024-03-29T02:51:38;5.30;99.90
10572;DHT22;5334;48.928;12.704;2024-03-29T02:54:09;5.30;99.90
10572;DHT22;5334;48.928;12.704;2024-03-29T02:56:35;5.30;99.90
10572;DHT22;5334;48.928;12.704;2024-03-29T02:59:04;5.30;99.90
10572;DHT22;5334;48.928;12.704;2024-03-29T03:01:29;5.40;99.90
10572;DHT22;5334;48.928;12.704;2024-03-29T03:03:55;5.40;99.90
10572;DHT22;5334;48.928;12.704;2024-03-29T03:06:20;5.40;99.90
10572;DHT22;5334;48.928;12.704;2024-03-29T03:08:46;5.40;99.90
10572;DHT22;5334;48.928;12.704;2024-03-29T03:11:30;5.30;99.90
10572;DHT22;5334;48.928;12.704;2024-03-29T03:13:56;5.20;99.90
10572;DHT22;5334;48.928;12.704;2024-03-29T03:16:22;5.10;99.90
10572;DHT22;5334;48.928;12.704;2024-03-29T03:18:50;5.10;99.90
10572;DHT22;5334;48.928;12.704;2024-03-29T03:21:16;5.10;99.90
10572;DHT22;5334;48.928;12.704;2024-03-29T03:23:42;5.10;99.90
10572;DHT22;5334;48.928;12.704;2024-03-29T03:26:07;5.00;99.90
10572;DHT22;5334;48.928;12.704;2024-03-29T03:28:33;5.00;99.90
10572;DHT22;5334;48.928;12.704;2024-03-29T03:30:58;5.00;99.90
10572;DHT22;5334;48.928;12.704;2024-03-29T03:33:24;5.10;99.90
10572;DHT22;5334;48.928;12.704;2024-03-29T03:35:50;5.10;99.90
10572;DHT22;5334;48.928;12.704;2024-03-29T03:38:16;5.20;99.90
10572;DHT22;5334;48.928;12.704;2024-03-29T03:40:42;5.20;99.90
10572;DHT22;5334;48.928;12.704;2024-03-29T03:43:08;5.30;99.90
10572;DHT22;5334;48.928;12.704;2024-03-29T03:45:38;5.30;99.90
10572;DHT22;5334;48.928;12.704;2024-03-29T03:48:05;5.30;99.90
10572;DHT22;5334;48.928;12.704;2024-03-29T03:50:31;5.30;99.90
10572;DHT22;5334;48.928;12.704;2024-03-29T03:52:57;5.30;99.90
10572;DHT22;5334;48.928;12.704;2024-03-29T03:55:23;5.30;99.90
10572;DHT22;5334;48.928;12.704;2024-03-29T03:57:49;5.30;99.90
10572;DHT22;5334;48.928;12.704;2024-03-29T04:00:14;5.30;99.90
10572;DHT22;5334;48.928;12.704;2024-03-29T04:02:40;5.30;99.90
10572;DHT22;5334;48.928;12.704;2024-03-29T04:05:07;5.30;99.90
10572;DHT22;5334;48.928;12.704;2024-03-29T04:07:32;5.20;99.90
10572;DHT22;5334;48.928;12.704;2024-03-29T04:09:58;5.20;99.90
10572;DHT22;5334;48.928;12.704;2024-03-29T04:12:24;5.10;99.90
10572;DHT22;5334;48.928;12.704;2024-03-29T04:14:49;5.10;99.90
10572;DHT22;5334;48.928;12.704;2024-03-29T04:17:15;5.00;99.90
10572;DHT22;5334;48.928;12.704;2024-03-29T04:19:42;5.00;99.90
10572;DHT22;5334;48.928;12.704;2024-03-29T04:22:07;5.00;99.90
10572;DHT22;5334;48.928;12.704;2024-03-29T04:24:33;5.00;99.90
10572;DHT22;5334;48.928;12.704;2024-03-29T04:26:59;5.00;99.90
10572;DHT22;5334;48.928;12.704;2024-03-29T04:29:24;5.00;99.90
10572;DHT22;5334;48.928;12.704;2024-03-29T04:31:50;4.90;99.90
10572;DHT22;5334;48.928;12.704;2024-03-29T04:34:16;4.80;99.90
10572;DHT22;5334;48.928;12.704;2024-03-29T04:36:41;4.80;99.90
10572;DHT22;5334;48.928;12.704;2024-03-29T04:39:07;4.80;99.90
10572;DHT22;5334;48.928;12.704;2024-03-29T04:41:34;4.70;99.90
10572;DHT22;5334;48.928;12.704;2024-03-29T04:44:03;4.70;99.90
10572;DHT22;5334;48.928;12.704;2024-03-29T04:46:30;4.60;99.90
10572;DHT22;5334;48.928;12.704;2024-03-29T04:48:57;4.50;99.90
10572;DHT22;5334;48.928;12.704;2024-03-29T04:51:24;4.40;99.90
10572;DHT22;5334;48.928;12.704;2024-03-29T04:53:50;4.40;99.90
10572;DHT22;5334;48.928;12.704;2024-03-29T04:56:15;4.30;99.90
10572;DHT22;5334;48.928;12.704;2024-03-29T04:58:41;4.30;99.90
10572;DHT22;5334;48.928;12.704;2024-03-29T05:01:07;4.30;99.90
10572;DHT22;5334;48.928;12.704;2024-03-29T05:03:33;4.30;99.90
10572;DHT22;5334;48.928;12.704;2024-03-29T05:05:59;4.30;99.90
10572;DHT22;5334;48.928;12.704;2024-03-29T05:08:25;4.30;99.90
10572;DHT22;5334;48.928;12.704;2024-03-29T05:10:52;4.40;99.90
10572;DHT22;5334;48.928;12.704;2024-03-29T05:13:18;4.40;99.90
10572;DHT22;5334;48.928;12.704;2024-03-29T05:15:48;4.50;99.90
10572;DHT22;5334;48.928;12.704;2024-03-29T05:18:14;4.50;99.90
10572;DHT22;5334;48.928;12.704;2024-03-29T05:20:40;4.50;99.90
10572;DHT22;5334;48.928;12.704;2024-03-29T05:23:07;4.50;99.90
10572;DHT22;5334;48.928;12.704;2024-03-29T05:25:33;4.60;99.90
10572;DHT22;5334;48.928;12.704;2024-03-29T05:27:58;4.70;99.90
10572;DHT22;5334;48.928;12.704;2024-03-29T05:30:24;4.80;99.90
10572;DHT22;5334;48.928;12.704;2024-03-29T05:32:50;4.90;99.90
10572;DHT22;5334;48.928;12.704;2024-03-29T05:35:16;5.00;99.90
10572;DHT22;5334;48.928;12.704;2024-03-29T05:37:41;5.10;99.90
10572;DHT22;5334;48.928;12.704;2024-03-29T05:40:08;5.30;99.90
10572;DHT22;5334;48.928;12.704;2024-03-29T05:42:34;5.40;99.90
10572;DHT22;5334;48.928;12.704;2024-03-29T05:45:02;5.60;99.90
10572;DHT22;5334;48.928;12.704;2024-03-29T05:47:28;5.80;99.90
10572;DHT22;5334;48.928;12.704;2024-03-29T05:52:20;6.20;99.90
10572;DHT22;5334;48.928;12.704;2024-03-29T05:54:48;6.40;99.90
10572;DHT22;5334;48.928;12.704;2024-03-29T05:57:14;6.50;99.90
10572;DHT22;5334;48.928;12.704;2024-03-29T05:59:41;6.60;99.90
10572;DHT22;5334;48.928;12.704;2024-03-29T06:02:08;6.80;99.90
10572;DHT22;5334;48.928;12.704;2024-03-29T06:04:34;7.00;99.90
10572;DHT22;5334;48.928;12.704;2024-03-29T06:07:03;7.10;99.90
10572;DHT22;5334;48.928;12.704;2024-03-29T06:09:29;7.30;99.90
10572;DHT22;5334;48.928;12.704;2024-03-29T06:11:56;7.50;99.90
10572;DHT22;5334;48.928;12.704;2024-03-29T06:14:25;7.60;99.90
10572;DHT22;5334;48.928;12.704;2024-03-29T06:17:10;7.80;99.90
10572;DHT22;5334;48.928;12.704;2024-03-29T06:24:47;8.60;99.90
10572;DHT22;5334;48.928;12.704;2024-03-29T06:27:14;8.60;99.90
10572;DHT22;5334;48.928;12.704;2024-03-29T06:29:43;8.60;99.90
10572;DHT22;5334;48.928;12.704;2024-03-29T06:32:10;8.60;99.90
10572;DHT22;5334;48.928;12.704;2024-03-29T06:34:35;8.70;99.90
10572;DHT22;5334;48.928;12.704;2024-03-29T06:37:02;8.90;99.90
10572;DHT22;5334;48.928;12.704;2024-03-29T06:39:27;8.90;99.90
10572;DHT22;5334;48.928;12.704;2024-03-29T06:41:53;9.00;99.90
10572;DHT22;5334;48.928;12.704;2024-03-29T06:44:19;9.10;99.90
10572;DHT22;5334;48.928;12.704;2024-03-29T06:46:46;9.40;99.90
10572;DHT22;5334;48.928;12.704;2024-03-29T06:49:11;9.50;99.90
10572;DHT22;5334;48.928;12.704;2024-03-29T06:54:05;9.80;99.90
10572;DHT22;5334;48.928;12.704;2024-03-29T06:56:31;9.90;99.90
10572;DHT22;5334;48.928;12.704;2024-03-29T06:58:57;10.00;99.90
10572;DHT22;5334;48.928;12.704;2024-03-29T07:01:22;10.10;99.90
10572;DHT22;5334;48.928;12.704;2024-03-29T07:03:48;10.30;99.90
10572;DHT22;5334;48.928;12.704;2024-03-29T07:06:14;10.50;99.90
10572;DHT22;5334;48.928;12.704;2024-03-29T07:08:39;10.60;99.90
10572;DHT22;5334;48.928;12.704;2024-03-29T07:11:05;10.60;99.90
10572;DHT22;5334;48.928;12.704;2024-03-29T07:13:31;10.70;99.90
10572;DHT22;5334;48.928;12.704;2024-03-29T07:15:58;10.60;99.90
10572;DHT22;5334;48.928;12.704;2024-03-29T07:18:25;10.70;99.90
10572;DHT22;5334;48.928;12.704;2024-03-29T07:20:51;10.80;99.90
10572;DHT22;5334;48.928;12.704;2024-03-29T07:23:17;10.70;99.90
10572;DHT22;5334;48.928;12.704;2024-03-29T07:25:57;10.70;99.90
10572;DHT22;5334;48.928;12.704;2024-03-29T07:28:23;10.60;99.90
10572;DHT22;5334;48.928;12.704;2024-03-29T07:30:49;10.40;99.90
10572;DHT22;5334;48.928;12.704;2024-03-29T07:33:15;10.20;99.90
10572;DHT22;5334;48.928;12.704;2024-03-29T07:35:42;10.10;99.90
10572;DHT22;5334;48.928;12.704;2024-03-29T07:38:08;9.90;99.90
10572;DHT22;5334;48.928;12.704;2024-03-29T07:40:33;9.90;99.90
10572;DHT22;5334;48.928;12.704;2024-03-29T07:43:00;9.80;99.90
10572;DHT22;5334;48.928;12.704;2024-03-29T07:45:26;9.90;99.90
10572;DHT22;5334;48.928;12.704;2024-03-29T07:47:52;9.80;99.90
10572;DHT22;5334;48.928;12.704;2024-03-29T07:50:21;9.90;99.90
10572;DHT22;5334;48.928;12.704;2024-03-29T07:52:47;9.90;99.90
10572;DHT22;5334;48.928;12.704;2024-03-29T07:55:13;9.90;99.90
10572;DHT22;5334;48.928;12.704;2024-03-29T07:57:38;9.90;99.90
10572;DHT22;5334;48.928;12.704;2024-03-29T08:00:05;9.90;99.90
10572;DHT22;5334;48.928;12.704;2024-03-29T08:02:32;10.00;99.90
10572;DHT22;5334;48.928;12.704;2024-03-29T08:04:57;10.10;99.90
10572;DHT22;5334;48.928;12.704;2024-03-29T08:07:24;10.20;99.90
10572;DHT22;5334;48.928;12.704;2024-03-29T08:09:50;10.30;99.90
10572;DHT22;5334;48.928;12.704;2024-03-29T08:12:16;10.40;99.90
10572;DHT22;5334;48.928;12.704;2024-03-29T08:14:42;10.40;99.90
10572;DHT22;5334;48.928;12.704;2024-03-29T08:17:08;10.60;99.90
10572;DHT22;5334;48.928;12.704;2024-03-29T08:19:40;10.70;99.90
10572;DHT22;5334;48.928;12.704;2024-03-29T08:22:06;11.30;99.90
10572;DHT22;5334;48.928;12.704;2024-03-29T08:26:59;12.00;99.90
10572;DHT22;5334;48.928;12.704;2024-03-29T08:29:28;11.90;99.90
10572;DHT22;5334;48.928;12.704;2024-03-29T08:31:53;12.20;99.90
10572;DHT22;5334;48.928;12.704;2024-03-29T08:34:19;12.60;99.90
10572;DHT22;5334;48.928;12.704;2024-03-29T08:41:37;13.20;99.40
10572;DHT22;5334;48.928;12.704;2024-03-29T08:44:03;13.20;99.90
10572;DHT22;5334;48.928;12.704;2024-03-29T08:46:29;13.20;99.90
10572;DHT22;5334;48.928;12.704;2024-03-29T08:48:55;13.40;99.90
10572;DHT22;5334;48.928;12.704;2024-03-29T08:51:21;13.50;99.30
10572;DHT22;5334;48.928;12.704;2024-03-29T08:58:41;14.20;98.80
10572;DHT22;5334;48.928;12.704;2024-03-29T09:01:07;14.20;98.20
10572;DHT22;5334;48.928;12.704;2024-03-29T09:03:33;14.30;99.30
10572;DHT22;5334;48.928;12.704;2024-03-29T09:05:59;14.50;98.20
10572;DHT22;5334;48.928;12.704;2024-03-29T09:10:51;15.00;98.50
10572;DHT22;5334;48.928;12.704;2024-03-29T09:13:16;15.00;96.30
10572;DHT22;5334;48.928;12.704;2024-03-29T09:15:42;14.90;96.70
10572;DHT22;5334;48.928;12.704;2024-03-29T09:18:08;14.80;95.90
10572;DHT22;5334;48.928;12.704;2024-03-29T09:20:56;14.70;96.60
10572;DHT22;5334;48.928;12.704;2024-03-29T09:23:23;14.70;96.80
10572;DHT22;5334;48.928;12.704;2024-03-29T09:25:51;14.80;97.00
10572;DHT22;5334;48.928;12.704;2024-03-29T09:28:16;15.10;97.10
10572;DHT22;5334;48.928;12.704;2024-03-29T09:30:43;15.20;97.00
10572;DHT22;5334;48.928;12.704;2024-03-29T09:33:08;15.50;96.80
10572;DHT22;5334;48.928;12.704;2024-03-29T09:35:39;15.60;95.70
10572;DHT22;5334;48.928;12.704;2024-03-29T09:38:07;15.50;95.60
10572;DHT22;5334;48.928;12.704;2024-03-29T09:40:33;15.50;96.60
10572;DHT22;5334;48.928;12.704;2024-03-29T09:43:01;15.40;95.50
10572;DHT22;5334;48.928;12.704;2024-03-29T09:45:35;15.00;95.10
10572;DHT22;5334;48.928;12.704;2024-03-29T09:48:04;14.70;96.20
10572;DHT22;5334;48.928;12.704;2024-03-29T09:50:37;14.70;97.40
10572;DHT22;5334;48.928;12.704;2024-03-29T09:53:05;14.70;97.10
10572;DHT22;5334;48.928;12.704;2024-03-29T09:55:31;14.70;97.80
10572;DHT22;5334;48.928;12.704;2024-03-29T09:57:57;14.70;98.50
10572;DHT22;5334;48.928;12.704;2024-03-29T10:00:25;14.80;97.90
10572;DHT22;5334;48.928;12.704;2024-03-29T10:02:55;14.70;98.30
10572;DHT22;5334;48.928;12.704;2024-03-29T10:05:22;14.70;98.20
10572;DHT22;5334;48.928;12.704;2024-03-29T10:07:48;14.80;98.50
10572;DHT22;5334;48.928;12.704;2024-03-29T10:10:15;14.80;98.50
10572;DHT22;5334;48.928;12.704;2024-03-29T10:12:41;14.80;97.80
10572;DHT22;5334;48.928;12.704;2024-03-29T10:15:07;15.00;98.50
10572;DHT22;5334;48.928;12.704;2024-03-29T10:17:49;15.20;97.50
10572;DHT22;5334;48.928;12.704;2024-03-29T10:20:16;15.30;97.20
10572;DHT22;5334;48.928;12.704;2024-03-29T10:22:44;15.40;97.60
10572;DHT22;5334;48.928;12.704;2024-03-29T10:25:14;15.40;96.70
10572;DHT22;5334;48.928;12.704;2024-03-29T10:27:42;15.60;96.90
10572;DHT22;5334;48.928;12.704;2024-03-29T10:30:10;15.80;96.90
10572;DHT22;5334;48.928;12.704;2024-03-29T10:32:39;15.90;96.60
10572;DHT22;5334;48.928;12.704;2024-03-29T10:37:33;16.10;95.70
10572;DHT22;5334;48.928;12.704;2024-03-29T10:40:10;16.50;96.60
10572;DHT22;5334;48.928;12.704;2024-03-29T10:42:41;16.50;94.30
10572;DHT22;5334;48.928;12.704;2024-03-29T10:45:08;16.40;95.00
10572;DHT22;5334;48.928;12.704;2024-03-29T10:50:02;17.00;95.00
10572;DHT22;5334;48.928;12.704;2024-03-29T10:52:31;17.20;95.00
10572;DHT22;5334;48.928;12.704;2024-03-29T10:54:56;17.20;94.10
10572;DHT22;5334;48.928;12.704;2024-03-29T10:57:24;17.20;94.70
10572;DHT22;5334;48.928;12.704;2024-03-29T11:00:00;17.20;94.80
10572;DHT22;5334;48.928;12.704;2024-03-29T11:02:46;17.10;93.50
10572;DHT22;5334;48.928;12.704;2024-03-29T11:05:15;17.00;94.10
10572;DHT22;5334;48.928;12.704;2024-03-29T11:07:43;17.00;94.70
10572;DHT22;5334;48.928;12.704;2024-03-29T11:10:18;17.00;94.70
10572;DHT22;5334;48.928;12.704;2024-03-29T11:13:00;17.10;94.50
10572;DHT22;5334;48.928;12.704;2024-03-29T11:15:29;17.40;94.40
10572;DHT22;5334;48.928;12.704;2024-03-29T11:17:56;17.40;92.70
10572;DHT22;5334;48.928;12.704;2024-03-29T11:20:29;17.40;92.80
10572;DHT22;5334;48.928;12.704;2024-03-29T11:23:11;17.30;92.60
10572;DHT22;5334;48.928;12.704;2024-03-29T11:25:44;17.30;92.40
10572;DHT22;5334;48.928;12.704;2024-03-29T11:28:14;17.50;92.80
10572;DHT22;5334;48.928;12.704;2024-03-29T11:30:48;17.70;93.00
10572;DHT22;5334;48.928;12.704;2024-03-29T11:33:34;17.90;92.30
10572;DHT22;5334;48.928;12.704;2024-03-29T11:36:11;18.10;92.00
10572;DHT22;5334;48.928;12.704;2024-03-29T11:38:38;18.20;91.40
10572;DHT22;5334;48.928;12.704;2024-03-29T11:41:07;18.00;91.90
10572;DHT22;5334;48.928;12.704;2024-03-29T11:46:02;18.40;91.30
10572;DHT22;5334;48.928;12.704;2024-03-29T11:51:00;18.60;91.60
10572;DHT22;5334;48.928;12.704;2024-03-29T11:53:27;18.70;90.60
10572;DHT22;5334;48.928;12.704;2024-03-29T11:56:00;18.80;90.80
10572;DHT22;5334;48.928;12.704;2024-03-29T11:58:29;18.90;89.90
10572;DHT22;5334;48.928;12.704;2024-03-29T12:00:58;19.10;89.20
10572;DHT22;5334;48.928;12.704;2024-03-29T12:03:26;19.20;90.10
10572;DHT22;5334;48.928;12.704;2024-03-29T12:05:54;19.30;88.80
10572;DHT22;5334;48.928;12.704;2024-03-29T12:08:33;19.20;88.20
10572;DHT22;5334;48.928;12.704;2024-03-29T12:11:01;19.20;89.30
10572;DHT22;5334;48.928;12.704;2024-03-29T12:13:28;19.40;90.20
10572;DHT22;5334;48.928;12.704;2024-03-29T12:15:56;19.60;89.80
10572;DHT22;5334;48.928;12.704;2024-03-29T12:18:23;19.70;88.00
10572;DHT22;5334;48.928;12.704;2024-03-29T12:20:51;19.80;88.10
10572;DHT22;5334;48.928;12.704;2024-03-29T12:23:18;20.10;88.30
10572;DHT22;5334;48.928;12.704;2024-03-29T12:25:44;20.20;87.40
10572;DHT22;5334;48.928;12.704;2024-03-29T12:28:12;20.00;85.00
10572;DHT22;5334;48.928;12.704;2024-03-29T12:30:46;19.60;86.30
10572;DHT22;5334;48.928;12.704;2024-03-29T12:33:23;19.30;86.20
10572;DHT22;5334;48.928;12.704;2024-03-29T12:35:50;19.10;86.30
10572;DHT22;5334;48.928;12.704;2024-03-29T12:38:19;19.10;86.60
10572;DHT22;5334;48.928;12.704;2024-03-29T12:40:46;19.30;85.50
10572;DHT22;5334;48.928;12.704;2024-03-29T12:43:20;19.50;86.20
10572;DHT22;5334;48.928;12.704;2024-03-29T12:45:48;19.70;86.00
10572;DHT22;5334;48.928;12.704;2024-03-29T12:48:17;20.00;87.50
10572;DHT22;5334;48.928;12.704;2024-03-29T12:50:45;20.30;84.70
10572;DHT22;5334;48.928;12.704;2024-03-29T12:53:14;20.60;83.50
10572;DHT22;5334;48.928;12.704;2024-03-29T12:55:42;20.80;83.40
10572;DHT22;5334;48.928;12.704;2024-03-29T12:58:15;20.90;83.90
10572;DHT22;5334;48.928;12.704;2024-03-29T13:00:44;21.10;81.00
10572;DHT22;5334;48.928;12.704;2024-03-29T13:03:10;21.30;81.30
10572;DHT22;5334;48.928;12.704;2024-03-29T13:05:37;21.50;81.10
10572;DHT22;5334;48.928;12.704;2024-03-29T13:08:11;21.60;78.90
10572;DHT22;5334;48.928;12.704;2024-03-29T13:13:08;22.30;76.50
10572;DHT22;5334;48.928;12.704;2024-03-29T13:15:36;22.40;77.90
10572;DHT22;5334;48.928;12.704;2024-03-29T13:18:03;22.20;76.10
10572;DHT22;5334;48.928;12.704;2024-03-29T13:20:30;22.10;75.60
10572;DHT22;5334;48.928;12.704;2024-03-29T13:22:57;22.10;77.20
10572;DHT22;5334;48.928;12.704;2024-03-29T13:25:23;21.70;77.40
10572;DHT22;5334;48.928;12.704;2024-03-29T13:27:52;21.30;78.40
10572;DHT22;5334;48.928;12.704;2024-03-29T13:30:23;20.80;77.20
10572;DHT22;5334;48.928;12.704;2024-03-29T13:32:51;20.50;79.40
10572;DHT22;5334;48.928;12.704;2024-03-29T13:35:17;20.50;78.80
10572;DHT22;5334;48.928;12.704;2024-03-29T13:37:47;20.60;80.90
10572;DHT22;5334;48.928;12.704;2024-03-29T13:40:20;21.40;79.50
10572;DHT22;5334;48.928;12.704;2024-03-29T13:42:46;21.80;77.90
10572;DHT22;5334;48.928;12.704;2024-03-29T13:45:14;22.00;76.90
10572;DHT22;5334;48.928;12.704;2024-03-29T13:47:41;22.30;78.10
10572;DHT22;5334;48.928;12.704;2024-03-29T13:50:09;22.30;74.80
10572;DHT22;5334;48.928;12.704;2024-03-29T13:52:38;22.60;76.50
10572;DHT22;5334;48.928;12.704;2024-03-29T13:55:05;22.50;75.60
10572;DHT22;5334;48.928;12.704;2024-03-29T13:57:31;22.30;74.60
10572;DHT22;5334;48.928;12.704;2024-03-29T13:59:58;21.90;76.70
10572;DHT22;5334;48.928;12.704;2024-03-29T14:02:25;21.40;77.70
10572;DHT22;5334;48.928;12.704;2024-03-29T14:04:53;21.20;77.70
10572;DHT22;5334;48.928;12.704;2024-03-29T14:07:20;21.60;78.80
10572;DHT22;5334;48.928;12.704;2024-03-29T14:09:47;22.20;76.40
10572;DHT22;5334;48.928;12.704;2024-03-29T14:12:13;22.50;75.20
10572;DHT22;5334;48.928;12.704;2024-03-29T14:14:40;22.60;75.70
10572;DHT22;5334;48.928;12.704;2024-03-29T14:17:09;22.60;74.80
10572;DHT22;5334;48.928;12.704;2024-03-29T14:19:39;22.50;72.80
10572;DHT22;5334;48.928;12.704;2024-03-29T14:22:05;22.10;72.80
10572;DHT22;5334;48.928;12.704;2024-03-29T14:24:32;22.20;74.10
10572;DHT22;5334;48.928;12.704;2024-03-29T14:27:02;22.10;72.70
10572;DHT22;5334;48.928;12.704;2024-03-29T14:29:30;22.10;73.00
10572;DHT22;5334;48.928;12.704;2024-03-29T14:31:55;21.70;74.30
10572;DHT22;5334;48.928;12.704;2024-03-29T14:34:22;21.20;75.80
10572;DHT22;5334;48.928;12.704;2024-03-29T14:36:47;21.20;75.40
10572;DHT22;5334;48.928;12.704;2024-03-29T14:39:14;21.50;76.40
10572;DHT22;5334;48.928;12.704;2024-03-29T14:41:41;21.30;74.90
10572;DHT22;5334;48.928;12.704;2024-03-29T14:44:08;21.50;75.50
10572;DHT22;5334;48.928;12.704;2024-03-29T14:46:34;21.40;75.40
10572;DHT22;5334;48.928;12.704;2024-03-29T14:49:03;21.50;75.80
10572;DHT22;5334;48.928;12.704;2024-03-29T14:51:36;21.50;75.90
10572;DHT22;5334;48.928;12.704;2024-03-29T14:54:03;21.60;76.00
10572;DHT22;5334;48.928;12.704;2024-03-29T14:56:31;22.10;76.70
10572;DHT22;5334;48.928;12.704;2024-03-29T14:58:59;22.70;76.90
10572;DHT22;5334;48.928;12.704;2024-03-29T15:01:25;22.80;74.50
10572;DHT22;5334;48.928;12.704;2024-03-29T15:03:52;22.70;72.70
10572;DHT22;5334;48.928;12.704;2024-03-29T15:06:20;22.50;74.40
10572;DHT22;5334;48.928;12.704;2024-03-29T15:08:48;22.80;73.30
10572;DHT22;5334;48.928;12.704;2024-03-29T15:11:14;22.90;74.80
10572;DHT22;5334;48.928;12.704;2024-03-29T15:13:40;23.00;74.50
10572;DHT22;5334;48.928;12.704;2024-03-29T15:16:06;23.00;74.40
10572;DHT22;5334;48.928;12.704;2024-03-29T15:18:33;23.10;75.90
10572;DHT22;5334;48.928;12.704;2024-03-29T15:21:01;23.10;74.60
10572;DHT22;5334;48.928;12.704;2024-03-29T15:23:29;22.70;75.60
10572;DHT22;5334;48.928;12.704;2024-03-29T15:25:58;22.10;76.60
10572;DHT22;5334;48.928;12.704;2024-03-29T15:28:26;21.70;76.70
10572;DHT22;5334;48.928;12.704;2024-03-29T15:31:12;21.40;77.90
10572;DHT22;5334;48.928;12.704;2024-03-29T15:36:07;20.90;79.40
10572;DHT22;5334;48.928;12.704;2024-03-29T15:38:35;20.70;81.40
10572;DHT22;5334;48.928;12.704;2024-03-29T15:41:01;20.70;81.90
10572;DHT22;5334;48.928;12.704;2024-03-29T15:43:27;20.50;82.20
10572;DHT22;5334;48.928;12.704;2024-03-29T15:45:57;20.40;82.70
10572;DHT22;5334;48.928;12.704;2024-03-29T15:48:23;20.20;83.20
10572;DHT22;5334;48.928;12.704;2024-03-29T15:55:46;19.70;92.00
10572;DHT22;5334;48.928;12.704;2024-03-29T16:00:39;19.50;86.60
10572;DHT22;5334;48.928;12.704;2024-03-29T16:03:10;19.50;87.40
10572;DHT22;5334;48.928;12.704;2024-03-29T16:05:39;19.40;87.60
10572;DHT22;5334;48.928;12.704;2024-03-29T16:08:05;19.40;87.70
10572;DHT22;5334;48.928;12.704;2024-03-29T16:12:59;19.30;88.10
10572;DHT22;5334;48.928;12.704;2024-03-29T16:15:26;19.30;89.10
10572;DHT22;5334;48.928;12.704;2024-03-29T16:17:52;19.20;89.60
10572;DHT22;5334;48.928;12.704;2024-03-29T16:20:18;19.20;89.60
10572;DHT22;5334;48.928;12.704;2024-03-29T16:22:44;19.10;89.70
10572;DHT22;5334;48.928;12.704;2024-03-29T16:25:10;19.00;90.00
10572;DHT22;5334;48.928;12.704;2024-03-29T16:30:02;18.90;90.00